sensor_id;sensor_type;location;lat;lon;timestamp;temperature;humidity
6293;DHT22;3179;54.350;10.102;2023-04-29T00:00:47;11.20;99.90
6293;DHT22;3179;54.350;10.102;2023-04-29T00:03:14;11.20;99.90
6293;DHT22;3179;54.350;10.102;2023-04-29T00:05:43;11.20;99.90
6293;DHT22;3179;54.350;10.102;2023-04-29T00:08:10;11.20;99.90
6293;DHT22;3179;54.350;10.102;2023-04-29T00:10:37;11.10;99.90
6293;DHT22;3179;54.350;10.102;2023-04-29T00:13:04;11.10;99.90
6293;DHT22;3179;54.350;10.102;2023-04-29T00:15:31;11.10;99.90
6293;DHT22;3179;54.350;10.102;2023-04-29T00:17:58;11.10;99.90
6293;DHT22;3179;54.350;10.102;2023-04-29T00:20:25;11.10;99.90
6293;DHT22;3179;54.350;10.102;2023-04-29T00:22:53;11.10;99.90
6293;DHT22;3179;54.350;10.102;2023-04-29T00:25:20;11.10;99.90
6293;DHT22;3179;54.350;10.102;2023-04-29T00:27:46;11.20;99.90
6293;DHT22;3179;54.350;10.102;2023-04-29T00:30:13;11.10;99.90
6293;DHT22;3179;54.350;10.102;2023-04-29T00:32:40;11.10;99.90
6293;DHT22;3179;54.350;10.102;2023-04-29T00:35:08;11.00;99.90
6293;DHT22;3179;54.350;10.102;2023-04-29T00:37:35;11.00;99.90
6293;DHT22;3179;54.350;10.102;2023-04-29T00:40:05;11.00;99.90
6293;DHT22;3179;54.350;10.102;2023-04-29T00:42:33;11.00;99.90
6293;DHT22;3179;54.350;10.102;2023-04-29T00:44:59;11.00;99.90
6293;DHT22;3179;54.350;10.102;2023-04-29T00:47:26;10.90;99.90
6293;DHT22;3179;54.350;10.102;2023-04-29T00:49:53;10.90;99.90
6293;DHT22;3179;54.350;10.102;2023-04-29T00:52:20;10.90;99.90
6293;DHT22;3179;54.350;10.102;2023-04-29T00:54:48;10.90;99.90
6293;DHT22;3179;54.350;10.102;2023-04-29T00:57:18;10.90;99.90
6293;DHT22;3179;54.350;10.102;2023-04-29T00:59:45;10.80;99.90
6293;DHT22;3179;54.350;10.102;2023-04-29T01:02:13;10.80;99.90
6293;DHT22;3179;54.350;10.102;2023-04-29T01:04:39;10.80;99.90
6293;DHT22;3179;54.350;10.102;2023-04-29T01:07:12;10.80;99.90
6293;DHT22;3179;54.350;10.102;2023-04-29T01:09:50;10.80;99.90
6293;DHT22;3179;54.350;10.102;2023-04-29T01:12:25;10.80;99.90
6293;DHT22;3179;54.350;10.102;2023-04-29T01:15:04;10.70;99.90
6293;DHT22;3179;54.350;10.102;2023-04-29T01:17:37;10.70;99.90
6293;DHT22;3179;54.350;10.102;2023-04-29T01:20:06;10.70;99.90
6293;DHT22;3179;54.350;10.102;2023-04-29T01:22:34;10.70;99.90
6293;DHT22;3179;54.350;10.102;2023-04-29T01:25:03;10.70;99.90
6293;DHT22;3179;54.350;10.102;2023-04-29T01:27:33;10.60;99.90
6293;DHT22;3179;54.350;10.102;2023-04-29T01:30:09;10.60;99.90
6293;DHT22;3179;54.350;10.102;2023-04-29T01:32:45;10.60;99.90
6293;DHT22;3179;54.350;10.102;2023-04-29T01:35:24;10.60;99.90
6293;DHT22;3179;54.350;10.102;2023-04-29T01:37:56;10.60;99.90
6293;DHT22;3179;54.350;10.102;2023-04-29T01:40:35;10.60;99.90
6293;DHT22;3179;54.350;10.102;2023-04-29T01:43:04;10.60;99.90
6293;DHT22;3179;54.350;10.102;2023-04-29T01:45:35;10.60;99.90
6293;DHT22;3179;54.350;10.102;2023-04-29T01:48:05;10.50;99.90
6293;DHT22;3179;54.350;10.102;2023-04-29T01:50:32;10.50;99.90
6293;DHT22;3179;54.350;10.102;2023-04-29T01:52:59;10.50;99.90
6293;DHT22;3179;54.350;10.102;2023-04-29T01:55:26;10.50;99.90
6293;DHT22;3179;54.350;10.102;2023-04-29T01:57:56;10.50;99.90
6293;DHT22;3179;54.350;10.102;2023-04-29T02:00:22;10.50;99.90
6293;DHT22;3179;54.350;10.102;2023-04-29T02:02:49;10.50;99.90
6293;DHT22;3179;54.350;10.102;2023-04-29T02:05:16;10.50;99.90
6293;DHT22;3179;54.350;10.102;2023-04-29T02:07:43;10.50;99.90
6293;DHT22;3179;54.350;10.102;2023-04-29T02:10:10;10.50;99.90
6293;DHT22;3179;54.350;10.102;2023-04-29T02:12:37;10.40;99.90
6293;DHT22;3179;54.350;10.102;2023-04-29T02:15:08;10.40;99.90
6293;DHT22;3179;54.350;10.102;2023-04-29T02:17:34;10.40;99.90
6293;DHT22;3179;54.350;10.102;2023-04-29T02:20:02;10.40;99.90
6293;DHT22;3179;54.350;10.102;2023-04-29T02:22:29;10.40;99.90
6293;DHT22;3179;54.350;10.102;2023-04-29T02:24:56;10.40;99.90
6293;DHT22;3179;54.350;10.102;2023-04-29T02:27:22;10.30;99.90
6293;DHT22;3179;54.350;10.102;2023-04-29T02:29:49;10.30;99.90
6293;DHT22;3179;54.350;10.102;2023-04-29T02:32:18;10.30;99.90
6293;DHT22;3179;54.350;10.102;2023-04-29T02:34:49;10.30;99.90
6293;DHT22;3179;54.350;10.102;2023-04-29T02:37:16;10.30;99.90
6293;DHT22;3179;54.350;10.102;2023-04-29T02:39:43;10.30;99.90
6293;DHT22;3179;54.350;10.102;2023-04-29T02:42:11;10.30;99.90
6293;DHT22;3179;54.350;10.102;2023-04-29T02:44:38;10.30;99.90
6293;DHT22;3179;54.350;10.102;2023-04-29T02:47:05;10.30;99.90
6293;DHT22;3179;54.350;10.102;2023-04-29T02:49:34;10.30;99.90
6293;DHT22;3179;54.350;10.102;2023-04-29T02:52:01;10.30;99.90
6293;DHT22;3179;54.350;10.102;2023-04-29T02:54:27;10.30;99.90
6293;DHT22;3179;54.350;10.102;2023-04-29T02:56:54;10.30;99.90
6293;DHT22;3179;54.350;10.102;2023-04-29T02:59:21;10.30;99.90
6293;DHT22;3179;54.350;10.102;2023-04-29T03:01:48;10.20;99.90
6293;DHT22;3179;54.350;10.102;2023-04-29T03:04:14;10.20;99.90
6293;DHT22;3179;54.350;10.102;2023-04-29T03:06:42;10.20;99.90
6293;DHT22;3179;54.350;10.102;2023-04-29T03:09:09;10.20;99.90
6293;DHT22;3179;54.350;10.102;2023-04-29T03:11:37;10.20;99.90
6293;DHT22;3179;54.350;10.102;2023-04-29T03:14:04;10.20;99.90
6293;DHT22;3179;54.350;10.102;2023-04-29T03:16:30;10.20;99.90
6293;DHT22;3179;54.350;10.102;2023-04-29T03:18:57;10.20;99.90
6293;DHT22;3179;54.350;10.102;2023-04-29T03:21:24;10.20;99.90
6293;DHT22;3179;54.350;10.102;2023-04-29T03:23:53;10.20;99.90
6293;DHT22;3179;54.350;10.102;2023-04-29T03:26:20;10.20;99.90
6293;DHT22;3179;54.350;10.102;2023-04-29T03:28:49;10.20;99.90
6293;DHT22;3179;54.350;10.102;2023-04-29T03:31:16;10.20;99.90
6293;DHT22;3179;54.350;10.102;2023-04-29T03:33:43;10.20;99.90
6293;DHT22;3179;54.350;10.102;2023-04-29T03:36:09;10.20;99.90
6293;DHT22;3179;54.350;10.102;2023-04-29T03:38:36;10.20;99.90
6293;DHT22;3179;54.350;10.102;2023-04-29T03:41:04;10.20;99.90
6293;DHT22;3179;54.350;10.102;2023-04-29T03:43:32;10.20;99.90
6293;DHT22;3179;54.350;10.102;2023-04-29T03:45:58;10.20;99.90
6293;DHT22;3179;54.350;10.102;2023-04-29T03:48:25;10.20;99.90
6293;DHT22;3179;54.350;10.102;2023-04-29T03:50:53;10.20;99.90
6293;DHT22;3179;54.350;10.102;2023-04-29T03:53:20;10.20;99.90
6293;DHT22;3179;54.350;10.102;2023-04-29T03:55:46;10.20;99.90
6293;DHT22;3179;54.350;10.102;2023-04-29T03:58:15;10.20;99.90
6293;DHT22;3179;54.350;10.102;2023-04-29T04:00:42;10.20;99.90
6293;DHT22;3179;54.350;10.102;2023-04-29T04:03:08;10.20;99.90
6293;DHT22;3179;54.350;10.102;2023-04-29T04:05:35;10.20;99.90
6293;DHT22;3179;54.350;10.102;2023-04-29T04:08:02;10.20;99.90
6293;DHT22;3179;54.350;10.102;2023-04-29T04:10:29;10.20;99.90
6293;DHT22;3179;54.350;10.102;2023-04-29T04:12:55;10.20;99.90
6293;DHT22;3179;54.350;10.102;2023-04-29T04:15:23;10.20;99.90
6293;DHT22;3179;54.350;10.102;2023-04-29T04:17:50;10.20;99.90
6293;DHT22;3179;54.350;10.102;2023-04-29T04:20:17;10.20;99.90
6293;DHT22;3179;54.350;10.102;2023-04-29T04:22:44;10.20;99.90
6293;DHT22;3179;54.350;10.102;2023-04-29T04:25:11;10.20;99.90
6293;DHT22;3179;54.350;10.102;2023-04-29T04:27:38;10.20;99.90
6293;DHT22;3179;54.350;10.102;2023-04-29T04:30:06;10.20;99.90
6293;DHT22;3179;54.350;10.102;2023-04-29T04:32:34;10.30;99.90
6293;DHT22;3179;54.350;10.102;2023-04-29T04:35:01;10.30;99.90
6293;DHT22;3179;54.350;10.102;2023-04-29T04:37:27;10.30;99.90
6293;DHT22;3179;54.350;10.102;2023-04-29T04:39:54;10.30;99.90
6293;DHT22;3179;54.350;10.102;2023-04-29T04:42:21;10.30;99.90
6293;DHT22;3179;54.350;10.102;2023-04-29T04:44:48;10.30;99.90
6293;DHT22;3179;54.350;10.102;2023-04-29T04:47:15;10.30;99.90
6293;DHT22;3179;54.350;10.102;2023-04-29T04:49:43;10.30;99.90
6293;DHT22;3179;54.350;10.102;2023-04-29T04:52:10;10.30;99.90
6293;DHT22;3179;54.350;10.102;2023-04-29T04:54:37;10.30;99.90
6293;DHT22;3179;54.350;10.102;2023-04-29T04:57:04;10.30;99.90
6293;DHT22;3179;54.350;10.102;2023-04-29T04:59:31;10.30;99.90
6293;DHT22;3179;54.350;10.102;2023-04-29T05:01:58;10.30;99.90
6293;DHT22;3179;54.350;10.102;2023-04-29T05:04:24;10.30;99.90
6293;DHT22;3179;54.350;10.102;2023-04-29T05:06:53;10.40;99.90
6293;DHT22;3179;54.350;10.102;2023-04-29T05:09:21;10.40;99.90
6293;DHT22;3179;54.350;10.102;2023-04-29T05:11:48;10.40;99.90
6293;DHT22;3179;54.350;10.102;2023-04-29T05:14:15;10.40;99.90
6293;DHT22;3179;54.350;10.102;2023-04-29T05:16:42;10.40;99.90
6293;DHT22;3179;54.350;10.102;2023-04-29T05:19:10;10.40;99.90
6293;DHT22;3179;54.350;10.102;2023-04-29T05:21:37;10.40;99.90
6293;DHT22;3179;54.350;10.102;2023-04-29T05:24:05;10.40;99.90
6293;DHT22;3179;54.350;10.102;2023-04-29T05:26:33;10.50;99.90
6293;DHT22;3179;54.350;10.102;2023-04-29T05:28:59;10.50;99.90
6293;DHT22;3179;54.350;10.102;2023-04-29T05:31:26;10.50;99.90
6293;DHT22;3179;54.350;10.102;2023-04-29T05:33:53;10.50;99.90
6293;DHT22;3179;54.350;10.102;2023-04-29T05:36:20;10.50;99.90
6293;DHT22;3179;54.350;10.102;2023-04-29T05:38:47;10.60;99.90
6293;DHT22;3179;54.350;10.102;2023-04-29T05:41:15;10.60;99.90
6293;DHT22;3179;54.350;10.102;2023-04-29T05:43:41;10.60;99.90
6293;DHT22;3179;54.350;10.102;2023-04-29T05:46:08;10.60;99.90
6293;DHT22;3179;54.350;10.102;2023-04-29T05:48:35;10.60;99.90
6293;DHT22;3179;54.350;10.102;2023-04-29T05:51:02;10.70;99.90
6293;DHT22;3179;54.350;10.102;2023-04-29T05:53:29;10.70;99.90
6293;DHT22;3179;54.350;10.102;2023-04-29T05:55:56;10.70;99.90
6293;DHT22;3179;54.350;10.102;2023-04-29T05:58:24;10.80;99.90
6293;DHT22;3179;54.350;10.102;2023-04-29T06:00:51;10.80;99.90
6293;DHT22;3179;54.350;10.102;2023-04-29T06:03:17;10.80;99.90
6293;DHT22;3179;54.350;10.102;2023-04-29T06:05:44;10.80;99.90
6293;DHT22;3179;54.350;10.102;2023-04-29T06:08:11;10.80;99.90
6293;DHT22;3179;54.350;10.102;2023-04-29T06:10:38;10.90;99.90
6293;DHT22;3179;54.350;10.102;2023-04-29T06:13:05;10.90;99.90
6293;DHT22;3179;54.350;10.102;2023-04-29T06:15:34;10.90;99.90
6293;DHT22;3179;54.350;10.102;2023-04-29T06:18:01;10.90;99.90
6293;DHT22;3179;54.350;10.102;2023-04-29T06:20:33;10.90;99.90
6293;DHT22;3179;54.350;10.102;2023-04-29T06:23:04;11.00;99.90
6293;DHT22;3179;54.350;10.102;2023-04-29T06:25:32;11.00;99.90
6293;DHT22;3179;54.350;10.102;2023-04-29T06:27:59;11.00;99.90
6293;DHT22;3179;54.350;10.102;2023-04-29T06:30:26;11.00;99.90
6293;DHT22;3179;54.350;10.102;2023-04-29T06:32:54;11.10;99.90
6293;DHT22;3179;54.350;10.102;2023-04-29T06:35:21;11.10;99.90
6293;DHT22;3179;54.350;10.102;2023-04-29T06:37:48;11.10;99.90
6293;DHT22;3179;54.350;10.102;2023-04-29T06:40:15;11.10;99.90
6293;DHT22;3179;54.350;10.102;2023-04-29T06:42:42;11.10;99.90
6293;DHT22;3179;54.350;10.102;2023-04-29T06:45:09;11.10;99.90
6293;DHT22;3179;54.350;10.102;2023-04-29T06:47:36;11.20;99.90
6293;DHT22;3179;54.350;10.102;2023-04-29T06:50:05;11.20;99.90
6293;DHT22;3179;54.350;10.102;2023-04-29T06:52:32;11.20;99.90
6293;DHT22;3179;54.350;10.102;2023-04-29T06:54:59;11.30;99.90
6293;DHT22;3179;54.350;10.102;2023-04-29T06:57:26;11.20;99.90
6293;DHT22;3179;54.350;10.102;2023-04-29T06:59:53;11.30;99.90
6293;DHT22;3179;54.350;10.102;2023-04-29T07:02:19;11.30;99.90
6293;DHT22;3179;54.350;10.102;2023-04-29T07:04:46;11.40;99.90
6293;DHT22;3179;54.350;10.102;2023-04-29T07:07:15;11.40;99.90
6293;DHT22;3179;54.350;10.102;2023-04-29T07:09:42;11.40;99.90
6293;DHT22;3179;54.350;10.102;2023-04-29T07:12:09;11.40;99.90
6293;DHT22;3179;54.350;10.102;2023-04-29T07:14:36;11.50;99.90
6293;DHT22;3179;54.350;10.102;2023-04-29T07:17:03;11.60;99.90
6293;DHT22;3179;54.350;10.102;2023-04-29T07:19:30;11.60;99.90
6293;DHT22;3179;54.350;10.102;2023-04-29T07:25:20;11.70;99.90
6293;DHT22;3179;54.350;10.102;2023-04-29T07:27:47;11.70;99.90
6293;DHT22;3179;54.350;10.102;2023-04-29T07:30:14;11.70;99.90
6293;DHT22;3179;54.350;10.102;2023-04-29T07:32:40;11.70;99.90
6293;DHT22;3179;54.350;10.102;2023-04-29T07:35:08;11.80;99.90
6293;DHT22;3179;54.350;10.102;2023-04-29T07:37:35;11.80;99.90
6293;DHT22;3179;54.350;10.102;2023-04-29T07:40:01;11.80;99.90
6293;DHT22;3179;54.350;10.102;2023-04-29T07:42:29;11.90;99.90
6293;DHT22;3179;54.350;10.102;2023-04-29T07:44:56;11.90;99.90
6293;DHT22;3179;54.350;10.102;2023-04-29T07:47:23;11.90;99.90
6293;DHT22;3179;54.350;10.102;2023-04-29T07:49:50;12.00;99.90
6293;DHT22;3179;54.350;10.102;2023-04-29T07:52:17;12.00;99.90
6293;DHT22;3179;54.350;10.102;2023-04-29T07:54:44;12.00;99.90
6293;DHT22;3179;54.350;10.102;2023-04-29T07:57:10;12.00;99.90
6293;DHT22;3179;54.350;10.102;2023-04-29T07:59:38;12.10;99.90
6293;DHT22;3179;54.350;10.102;2023-04-29T08:02:05;12.10;99.90
6293;DHT22;3179;54.350;10.102;2023-04-29T08:04:32;12.10;99.90
6293;DHT22;3179;54.350;10.102;2023-04-29T08:06:59;12.20;99.90
6293;DHT22;3179;54.350;10.102;2023-04-29T08:09:27;12.30;99.90
6293;DHT22;3179;54.350;10.102;2023-04-29T08:11:53;12.30;99.90
6293;DHT22;3179;54.350;10.102;2023-04-29T08:14:20;12.30;99.90
6293;DHT22;3179;54.350;10.102;2023-04-29T08:16:48;12.40;99.90
6293;DHT22;3179;54.350;10.102;2023-04-29T08:19:15;12.40;99.90
6293;DHT22;3179;54.350;10.102;2023-04-29T08:21:42;12.40;99.90
6293;DHT22;3179;54.350;10.102;2023-04-29T08:24:08;12.40;99.90
6293;DHT22;3179;54.350;10.102;2023-04-29T08:26:35;12.40;99.90
6293;DHT22;3179;54.350;10.102;2023-04-29T08:29:02;12.50;99.90
6293;DHT22;3179;54.350;10.102;2023-04-29T08:31:29;12.50;99.90
6293;DHT22;3179;54.350;10.102;2023-04-29T08:33:58;12.50;99.90
6293;DHT22;3179;54.350;10.102;2023-04-29T08:36:25;12.60;99.90
6293;DHT22;3179;54.350;10.102;2023-04-29T08:38:53;12.60;99.90
6293;DHT22;3179;54.350;10.102;2023-04-29T08:41:19;12.70;99.90
6293;DHT22;3179;54.350;10.102;2023-04-29T08:43:46;12.70;99.90
6293;DHT22;3179;54.350;10.102;2023-04-29T08:46:13;12.60;99.20
6293;DHT22;3179;54.350;10.102;2023-04-29T08:48:41;12.70;99.50
6293;DHT22;3179;54.350;10.102;2023-04-29T08:51:10;12.70;99.20
6293;DHT22;3179;54.350;10.102;2023-04-29T08:53:38;12.70;99.20
6293;DHT22;3179;54.350;10.102;2023-04-29T08:56:10;12.80;99.50
6293;DHT22;3179;54.350;10.102;2023-04-29T08:58:40;12.80;99.10
6293;DHT22;3179;54.350;10.102;2023-04-29T09:01:08;12.90;99.30
6293;DHT22;3179;54.350;10.102;2023-04-29T09:03:42;13.00;99.30
6293;DHT22;3179;54.350;10.102;2023-04-29T09:06:11;13.10;98.90
6293;DHT22;3179;54.350;10.102;2023-04-29T09:08:39;13.10;98.80
6293;DHT22;3179;54.350;10.102;2023-04-29T09:11:07;13.10;98.70
6293;DHT22;3179;54.350;10.102;2023-04-29T09:13:36;13.10;98.60
6293;DHT22;3179;54.350;10.102;2023-04-29T09:16:03;13.10;98.70
6293;DHT22;3179;54.350;10.102;2023-04-29T09:18:44;13.20;98.60
6293;DHT22;3179;54.350;10.102;2023-04-29T09:21:17;13.20;98.40
6293;DHT22;3179;54.350;10.102;2023-04-29T09:23:44;13.30;98.50
6293;DHT22;3179;54.350;10.102;2023-04-29T09:26:12;13.30;98.50
6293;DHT22;3179;54.350;10.102;2023-04-29T09:28:39;13.40;98.50
6293;DHT22;3179;54.350;10.102;2023-04-29T09:31:08;13.50;98.50
6293;DHT22;3179;54.350;10.102;2023-04-29T09:33:49;13.60;98.50
6293;DHT22;3179;54.350;10.102;2023-04-29T09:36:36;13.70;98.50
6293;DHT22;3179;54.350;10.102;2023-04-29T09:39:03;13.70;97.80
6293;DHT22;3179;54.350;10.102;2023-04-29T09:41:36;13.90;98.50
6293;DHT22;3179;54.350;10.102;2023-04-29T09:44:03;13.90;98.40
6293;DHT22;3179;54.350;10.102;2023-04-29T09:46:31;14.00;98.30
6293;DHT22;3179;54.350;10.102;2023-04-29T09:48:58;14.10;98.30
6293;DHT22;3179;54.350;10.102;2023-04-29T09:51:25;14.20;98.50
6293;DHT22;3179;54.350;10.102;2023-04-29T09:53:54;14.20;97.80
6293;DHT22;3179;54.350;10.102;2023-04-29T09:56:20;14.20;97.70
6293;DHT22;3179;54.350;10.102;2023-04-29T09:58:48;14.30;97.50
6293;DHT22;3179;54.350;10.102;2023-04-29T10:01:15;14.30;97.20
6293;DHT22;3179;54.350;10.102;2023-04-29T10:03:46;14.40;97.40
6293;DHT22;3179;54.350;10.102;2023-04-29T10:06:16;14.50;97.20
6293;DHT22;3179;54.350;10.102;2023-04-29T10:08:43;14.50;97.10
6293;DHT22;3179;54.350;10.102;2023-04-29T10:11:14;14.60;96.80
6293;DHT22;3179;54.350;10.102;2023-04-29T10:13:42;14.70;97.10
6293;DHT22;3179;54.350;10.102;2023-04-29T10:16:21;14.80;96.90
6293;DHT22;3179;54.350;10.102;2023-04-29T10:18:53;14.90;96.10
6293;DHT22;3179;54.350;10.102;2023-04-29T10:21:25;15.00;96.30
6293;DHT22;3179;54.350;10.102;2023-04-29T10:23:53;15.10;95.90
6293;DHT22;3179;54.350;10.102;2023-04-29T10:26:26;15.10;96.00
6293;DHT22;3179;54.350;10.102;2023-04-29T10:28:54;15.10;95.80
6293;DHT22;3179;54.350;10.102;2023-04-29T10:31:21;15.10;95.90
6293;DHT22;3179;54.350;10.102;2023-04-29T10:33:51;15.10;95.40
6293;DHT22;3179;54.350;10.102;2023-04-29T10:36:21;15.10;95.70
6293;DHT22;3179;54.350;10.102;2023-04-29T10:38:50;15.10;95.50
6293;DHT22;3179;54.350;10.102;2023-04-29T10:41:20;15.30;95.50
6293;DHT22;3179;54.350;10.102;2023-04-29T10:43:51;15.40;95.80
6293;DHT22;3179;54.350;10.102;2023-04-29T10:46:19;15.50;95.50
6293;DHT22;3179;54.350;10.102;2023-04-29T10:48:47;15.60;95.90
6293;DHT22;3179;54.350;10.102;2023-04-29T10:51:27;15.70;95.30
6293;DHT22;3179;54.350;10.102;2023-04-29T10:54:01;15.70;95.10
6293;DHT22;3179;54.350;10.102;2023-04-29T10:56:38;15.70;95.30
6293;DHT22;3179;54.350;10.102;2023-04-29T10:59:10;15.80;95.10
6293;DHT22;3179;54.350;10.102;2023-04-29T11:01:48;15.90;95.00
6293;DHT22;3179;54.350;10.102;2023-04-29T11:04:16;15.90;94.40
6293;DHT22;3179;54.350;10.102;2023-04-29T11:06:45;16.00;94.30
6293;DHT22;3179;54.350;10.102;2023-04-29T11:09:14;16.10;94.70
6293;DHT22;3179;54.350;10.102;2023-04-29T11:11:55;16.20;94.70
6293;DHT22;3179;54.350;10.102;2023-04-29T11:14:25;16.30;94.10
6293;DHT22;3179;54.350;10.102;2023-04-29T11:16:55;16.30;93.90
6293;DHT22;3179;54.350;10.102;2023-04-29T11:19:24;16.30;94.20
6293;DHT22;3179;54.350;10.102;2023-04-29T11:22:13;16.40;93.90
6293;DHT22;3179;54.350;10.102;2023-04-29T11:24:52;16.40;93.50
6293;DHT22;3179;54.350;10.102;2023-04-29T11:27:20;16.40;93.90
6293;DHT22;3179;54.350;10.102;2023-04-29T11:29:52;16.50;93.80
6293;DHT22;3179;54.350;10.102;2023-04-29T11:32:23;16.50;93.50
6293;DHT22;3179;54.350;10.102;2023-04-29T11:34:51;16.40;94.00
6293;DHT22;3179;54.350;10.102;2023-04-29T11:37:19;16.40;94.20
6293;DHT22;3179;54.350;10.102;2023-04-29T11:39:47;16.50;94.50
6293;DHT22;3179;54.350;10.102;2023-04-29T11:42:19;16.50;94.30
6293;DHT22;3179;54.350;10.102;2023-04-29T11:44:46;16.60;94.20
6293;DHT22;3179;54.350;10.102;2023-04-29T11:47:14;16.60;94.70
6293;DHT22;3179;54.350;10.102;2023-04-29T11:49:41;16.50;94.50
6293;DHT22;3179;54.350;10.102;2023-04-29T11:52:08;16.50;94.40
6293;DHT22;3179;54.350;10.102;2023-04-29T11:54:35;16.50;94.70
6293;DHT22;3179;54.350;10.102;2023-04-29T11:57:02;16.70;94.70
6293;DHT22;3179;54.350;10.102;2023-04-29T11:59:30;16.80;94.70
6293;DHT22;3179;54.350;10.102;2023-04-29T12:01:57;17.00;94.30
6293;DHT22;3179;54.350;10.102;2023-04-29T12:04:26;17.10;94.20
6293;DHT22;3179;54.350;10.102;2023-04-29T12:06:56;17.20;94.10
6293;DHT22;3179;54.350;10.102;2023-04-29T12:09:23;17.30;94.00
6293;DHT22;3179;54.350;10.102;2023-04-29T12:11:51;17.30;93.80
6293;DHT22;3179;54.350;10.102;2023-04-29T12:14:18;17.30;93.80
6293;DHT22;3179;54.350;10.102;2023-04-29T12:16:45;17.40;93.10
6293;DHT22;3179;54.350;10.102;2023-04-29T12:19:12;17.40;92.40
6293;DHT22;3179;54.350;10.102;2023-04-29T12:21:48;17.50;92.60
6293;DHT22;3179;54.350;10.102;2023-04-29T12:24:16;17.60;91.70
6293;DHT22;3179;54.350;10.102;2023-04-29T12:26:44;17.60;92.40
6293;DHT22;3179;54.350;10.102;2023-04-29T12:29:11;17.70;92.40
6293;DHT22;3179;54.350;10.102;2023-04-29T12:31:38;17.80;92.60
6293;DHT22;3179;54.350;10.102;2023-04-29T12:34:06;17.70;92.70
6293;DHT22;3179;54.350;10.102;2023-04-29T12:36:33;17.60;92.60
6293;DHT22;3179;54.350;10.102;2023-04-29T12:39:04;17.70;92.60
6293;DHT22;3179;54.350;10.102;2023-04-29T12:41:38;17.70;92.10
6293;DHT22;3179;54.350;10.102;2023-04-29T12:44:05;17.70;92.30
6293;DHT22;3179;54.350;10.102;2023-04-29T12:46:36;17.60;92.70
6293;DHT22;3179;54.350;10.102;2023-04-29T12:49:03;17.60;92.50
6293;DHT22;3179;54.350;10.102;2023-04-29T12:51:31;17.50;92.40
6293;DHT22;3179;54.350;10.102;2023-04-29T12:53:58;17.50;92.20
6293;DHT22;3179;54.350;10.102;2023-04-29T12:56:26;17.40;92.50
6293;DHT22;3179;54.350;10.102;2023-04-29T12:58:53;17.30;92.40
6293;DHT22;3179;54.350;10.102;2023-04-29T13:01:20;17.20;92.50
6293;DHT22;3179;54.350;10.102;2023-04-29T13:03:47;17.20;92.30
6293;DHT22;3179;54.350;10.102;2023-04-29T13:06:15;17.10;92.30
6293;DHT22;3179;54.350;10.102;2023-04-29T13:08:42;17.00;92.50
6293;DHT22;3179;54.350;10.102;2023-04-29T13:11:09;17.00;92.60
6293;DHT22;3179;54.350;10.102;2023-04-29T13:13:39;17.00;92.60
6293;DHT22;3179;54.350;10.102;2023-04-29T13:16:06;17.00;92.40
6293;DHT22;3179;54.350;10.102;2023-04-29T13:18:33;16.90;92.10
6293;DHT22;3179;54.350;10.102;2023-04-29T13:21:00;16.90;92.30
6293;DHT22;3179;54.350;10.102;2023-04-29T13:23:27;17.00;92.90
6293;DHT22;3179;54.350;10.102;2023-04-29T13:25:53;17.20;92.70
6293;DHT22;3179;54.350;10.102;2023-04-29T13:28:20;17.30;92.80
6293;DHT22;3179;54.350;10.102;2023-04-29T13:30:49;17.30;92.60
6293;DHT22;3179;54.350;10.102;2023-04-29T13:33:16;17.50;92.40
6293;DHT22;3179;54.350;10.102;2023-04-29T13:35:44;17.70;92.40
6293;DHT22;3179;54.350;10.102;2023-04-29T13:38:11;17.90;92.50
6293;DHT22;3179;54.350;10.102;2023-04-29T13:40:38;18.30;92.40
6293;DHT22;3179;54.350;10.102;2023-04-29T13:43:05;18.70;92.80
6293;DHT22;3179;54.350;10.102;2023-04-29T13:45:32;18.90;92.60
6293;DHT22;3179;54.350;10.102;2023-04-29T13:48:00;19.00;92.50
6293;DHT22;3179;54.350;10.102;2023-04-29T13:50:27;19.30;91.90
6293;DHT22;3179;54.350;10.102;2023-04-29T13:52:54;19.60;91.20
6293;DHT22;3179;54.350;10.102;2023-04-29T13:55:21;20.00;91.20
6293;DHT22;3179;54.350;10.102;2023-04-29T13:57:47;20.30;91.20
6293;DHT22;3179;54.350;10.102;2023-04-29T14:00:15;20.40;90.80
6293;DHT22;3179;54.350;10.102;2023-04-29T14:02:42;20.20;90.40
6293;DHT22;3179;54.350;10.102;2023-04-29T14:05:11;20.20;90.50
6293;DHT22;3179;54.350;10.102;2023-04-29T14:07:38;20.40;90.60
6293;DHT22;3179;54.350;10.102;2023-04-29T14:10:05;20.70;90.70
6293;DHT22;3179;54.350;10.102;2023-04-29T14:12:32;20.90;89.90
6293;DHT22;3179;54.350;10.102;2023-04-29T14:14:59;21.20;90.10
6293;DHT22;3179;54.350;10.102;2023-04-29T14:17:25;21.50;89.50
6293;DHT22;3179;54.350;10.102;2023-04-29T14:19:52;21.50;88.90
6293;DHT22;3179;54.350;10.102;2023-04-29T14:22:20;21.40;89.00
6293;DHT22;3179;54.350;10.102;2023-04-29T14:24:47;21.60;88.30
6293;DHT22;3179;54.350;10.102;2023-04-29T14:27:14;21.70;88.10
6293;DHT22;3179;54.350;10.102;2023-04-29T14:29:41;21.90;87.50
6293;DHT22;3179;54.350;10.102;2023-04-29T14:32:07;21.90;86.20
6293;DHT22;3179;54.350;10.102;2023-04-29T14:34:34;21.70;85.90
6293;DHT22;3179;54.350;10.102;2023-04-29T14:37:01;21.60;85.50
6293;DHT22;3179;54.350;10.102;2023-04-29T14:39:29;21.70;85.30
6293;DHT22;3179;54.350;10.102;2023-04-29T14:41:56;21.90;84.00
6293;DHT22;3179;54.350;10.102;2023-04-29T14:44:22;22.10;84.70
6293;DHT22;3179;54.350;10.102;2023-04-29T14:46:49;22.50;84.50
6293;DHT22;3179;54.350;10.102;2023-04-29T14:49:16;22.30;83.20
6293;DHT22;3179;54.350;10.102;2023-04-29T14:51:43;22.00;83.30
6293;DHT22;3179;54.350;10.102;2023-04-29T14:54:10;21.90;83.50
6293;DHT22;3179;54.350;10.102;2023-04-29T14:56:39;22.00;83.20
6293;DHT22;3179;54.350;10.102;2023-04-29T14:59:05;22.30;82.30
6293;DHT22;3179;54.350;10.102;2023-04-29T15:01:33;22.60;82.40
6293;DHT22;3179;54.350;10.102;2023-04-29T15:04:00;22.90;82.70
6293;DHT22;3179;54.350;10.102;2023-04-29T15:06:28;23.00;81.60
6293;DHT22;3179;54.350;10.102;2023-04-29T15:08:56;22.90;80.00
6293;DHT22;3179;54.350;10.102;2023-04-29T15:11:23;22.20;79.90
6293;DHT22;3179;54.350;10.102;2023-04-29T15:13:51;21.90;80.60
6293;DHT22;3179;54.350;10.102;2023-04-29T15:16:18;21.60;81.30
6293;DHT22;3179;54.350;10.102;2023-04-29T15:18:45;21.40;81.80
6293;DHT22;3179;54.350;10.102;2023-04-29T15:21:12;21.40;81.80
6293;DHT22;3179;54.350;10.102;2023-04-29T15:23:39;21.40;82.10
6293;DHT22;3179;54.350;10.102;2023-04-29T15:26:05;21.50;81.30
6293;DHT22;3179;54.350;10.102;2023-04-29T15:28:32;21.50;81.00
6293;DHT22;3179;54.350;10.102;2023-04-29T15:31:00;21.60;81.20
6293;DHT22;3179;54.350;10.102;2023-04-29T15:33:29;21.80;80.80
6293;DHT22;3179;54.350;10.102;2023-04-29T15:35:57;22.20;79.60
6293;DHT22;3179;54.350;10.102;2023-04-29T15:38:24;22.60;77.90
6293;DHT22;3179;54.350;10.102;2023-04-29T15:40:51;23.00;77.50
6293;DHT22;3179;54.350;10.102;2023-04-29T15:43:23;23.40;76.30
6293;DHT22;3179;54.350;10.102;2023-04-29T15:45:50;23.70;75.50
6293;DHT22;3179;54.350;10.102;2023-04-29T15:48:18;23.80;74.40
6293;DHT22;3179;54.350;10.102;2023-04-29T15:50:45;24.00;74.10
6293;DHT22;3179;54.350;10.102;2023-04-29T15:53:11;24.10;74.00